sensor_id;sensor_type;location;lat;lon;timestamp;pressure;altitude;pressure_sealevel;temperature;humidity
10940;BME280;5522;42.696;23.494;2023-02-12T00:02:22;53676.91;;;-139.68;100.00
10940;BME280;5522;42.696;23.494;2023-02-12T00:04:49;53634.69;;;-139.68;100.00
10940;BME280;5522;42.696;23.494;2023-02-12T00:07:16;53646.75;;;-139.68;100.00
10940;BME280;5522;42.696;23.494;2023-02-12T00:09:43;53642.72;;;-139.68;100.00
10940;BME280;5522;42.696;23.494;2023-02-12T00:12:10;53662.84;;;-139.68;100.00
10940;BME280;5522;42.696;23.494;2023-02-12T00:14:37;53658.81;;;-139.68;100.00
10940;BME280;5522;42.696;23.494;2023-02-12T00:17:05;53656.81;;;-139.68;100.00
10940;BME280;5522;42.696;23.494;2023-02-12T00:19:32;53656.81;;;-139.68;100.00
10940;BME280;5522;42.696;23.494;2023-02-12T00:21:58;53622.63;;;-139.68;100.00
10940;BME280;5522;42.696;23.494;2023-02-12T00:24:25;53634.69;;;-139.68;100.00
10940;BME280;5522;42.696;23.494;2023-02-12T00:26:52;53634.69;;;-139.68;100.00
10940;BME280;5522;42.696;23.494;2023-02-12T00:29:19;53640.72;;;-139.68;100.00
10940;BME280;5522;42.696;23.494;2023-02-12T00:31:46;53630.66;;;-139.68;100.00
10940;BME280;5522;42.696;23.494;2023-02-12T00:34:14;53624.63;;;-139.68;100.00
10940;BME280;5522;42.696;23.494;2023-02-12T00:36:41;53646.75;;;-139.68;100.00
10940;BME280;5522;42.696;23.494;2023-02-12T00:39:09;53642.72;;;-139.68;100.00
10940;BME280;5522;42.696;23.494;2023-02-12T00:41:36;53618.63;;;-139.68;100.00
10940;BME280;5522;42.696;23.494;2023-02-12T00:44:03;53654.78;;;-139.68;100.00
10940;BME280;5522;42.696;23.494;2023-02-12T00:46:30;53658.81;;;-139.68;100.00
10940;BME280;5522;42.696;23.494;2023-02-12T00:48:57;53618.63;;;-139.68;100.00
10940;BME280;5522;42.696;23.494;2023-02-12T00:51:25;53602.53;;;-139.68;100.00
10940;BME280;5522;42.696;23.494;2023-02-12T00:53:52;53650.78;;;-139.68;100.00
10940;BME280;5522;42.696;23.494;2023-02-12T00:56:19;53634.69;;;-139.68;100.00
10940;BME280;5522;42.696;23.494;2023-02-12T00:58:46;53638.72;;;-139.68;100.00
10940;BME280;5522;42.696;23.494;2023-02-12T01:01:12;53642.72;;;-139.68;100.00
10940;BME280;5522;42.696;23.494;2023-02-12T01:03:39;53614.59;;;-139.68;100.00
10940;BME280;5522;42.696;23.494;2023-02-12T01:06:06;53654.78;;;-139.68;100.00
10940;BME280;5522;42.696;23.494;2023-02-12T01:08:35;53640.72;;;-139.68;100.00
10940;BME280;5522;42.696;23.494;2023-02-12T01:11:03;53678.91;;;-139.68;100.00
10940;BME280;5522;42.696;23.494;2023-02-12T01:13:32;53628.66;;;-139.68;100.00
10940;BME280;5522;42.696;23.494;2023-02-12T01:16:04;53634.69;;;-139.68;100.00
10940;BME280;5522;42.696;23.494;2023-02-12T01:18:33;53650.78;;;-139.68;100.00
10940;BME280;5522;42.696;23.494;2023-02-12T01:20:59;53604.53;;;-139.68;100.00
10940;BME280;5522;42.696;23.494;2023-02-12T01:23:26;53618.63;;;-139.68;100.00
10940;BME280;5522;42.696;23.494;2023-02-12T01:25:57;53636.69;;;-139.68;100.00
10940;BME280;5522;42.696;23.494;2023-02-12T01:28:24;53610.56;;;-139.68;100.00
10940;BME280;5522;42.696;23.494;2023-02-12T01:30:51;53654.78;;;-139.68;100.00
10940;BME280;5522;42.696;23.494;2023-02-12T01:33:18;53650.78;;;-139.68;100.00
10940;BME280;5522;42.696;23.494;2023-02-12T01:35:45;53652.78;;;-139.68;100.00
10940;BME280;5522;42.696;23.494;2023-02-12T01:38:12;53658.81;;;-139.68;100.00
10940;BME280;5522;42.696;23.494;2023-02-12T01:40:38;53630.66;;;-139.68;100.00
10940;BME280;5522;42.696;23.494;2023-02-12T01:43:10;53632.69;;;-139.68;100.00
10940;BME280;5522;42.696;23.494;2023-02-12T01:45:47;53634.69;;;-139.68;100.00
10940;BME280;5522;42.696;23.494;2023-02-12T01:48:16;53652.78;;;-139.68;100.00
10940;BME280;5522;42.696;23.494;2023-02-12T01:50:45;53618.63;;;-139.68;100.00
10940;BME280;5522;42.696;23.494;2023-02-12T01:53:15;53646.75;;;-139.68;100.00
10940;BME280;5522;42.696;23.494;2023-02-12T01:55:46;53610.56;;;-139.68;100.00
10940;BME280;5522;42.696;23.494;2023-02-12T01:58:15;53634.69;;;-139.68;100.00
10940;BME280;5522;42.696;23.494;2023-02-12T02:00:43;53616.59;;;-139.68;100.00
10940;BME280;5522;42.696;23.494;2023-02-12T02:03:10;53638.72;;;-139.68;100.00
10940;BME280;5522;42.696;23.494;2023-02-12T02:05:42;53670.88;;;-139.68;100.00
10940;BME280;5522;42.696;23.494;2023-02-12T02:08:11;53646.75;;;-139.68;100.00
10940;BME280;5522;42.696;23.494;2023-02-12T02:10:38;53650.78;;;-139.68;100.00
10940;BME280;5522;42.696;23.494;2023-02-12T02:13:05;53614.59;;;-139.68;100.00
10940;BME280;5522;42.696;23.494;2023-02-12T02:15:56;53634.69;;;-139.68;100.00
10940;BME280;5522;42.696;23.494;2023-02-12T02:18:31;53614.59;;;-139.68;100.00
10940;BME280;5522;42.696;23.494;2023-02-12T02:21:19;53656.81;;;-139.68;100.00
10940;BME280;5522;42.696;23.494;2023-02-12T02:27:15;53630.66;;;-139.68;100.00
10940;BME280;5522;42.696;23.494;2023-02-12T02:33:09;53574.38;;;-139.68;98.58
10940;BME280;5522;42.696;23.494;2023-02-12T02:35:40;53646.75;;;-139.68;98.11
10940;BME280;5522;42.696;23.494;2023-02-12T02:38:19;53662.84;;;-139.68;98.31
10940;BME280;5522;42.696;23.494;2023-02-12T02:40:50;53638.72;;;-139.68;98.00
10940;BME280;5522;42.696;23.494;2023-02-12T02:43:24;53668.88;;;-139.68;98.13
10940;BME280;5522;42.696;23.494;2023-02-12T02:45:55;53662.84;;;-139.68;97.33
10940;BME280;5522;42.696;23.494;2023-02-12T02:48:31;53662.84;;;-139.68;97.06
10940;BME280;5522;42.696;23.494;2023-02-12T02:51:03;53642.72;;;-139.68;97.49
10940;BME280;5522;42.696;23.494;2023-02-12T02:53:33;53658.81;;;-139.68;97.09
10940;BME280;5522;42.696;23.494;2023-02-12T02:56:03;53630.66;;;-139.68;96.95
10940;BME280;5522;42.696;23.494;2023-02-12T02:58:35;53660.81;;;-139.68;96.51
10940;BME280;5522;42.696;23.494;2023-02-12T03:01:07;53642.72;;;-139.68;96.09
10940;BME280;5522;42.696;23.494;2023-02-12T03:03:42;53652.78;;;-139.68;95.51
10940;BME280;5522;42.696;23.494;2023-02-12T03:06:13;53648.75;;;-139.68;95.51
10940;BME280;5522;42.696;23.494;2023-02-12T03:08:43;53654.78;;;-139.68;94.93
10940;BME280;5522;42.696;23.494;2023-02-12T03:11:18;53654.78;;;-139.68;94.77
10940;BME280;5522;42.696;23.494;2023-02-12T03:13:51;53624.63;;;-139.68;94.58
10940;BME280;5522;42.696;23.494;2023-02-12T03:16:22;53626.66;;;-139.68;95.11
10940;BME280;5522;42.696;23.494;2023-02-12T03:18:54;53644.75;;;-139.68;94.53
10940;BME280;5522;42.696;23.494;2023-02-12T03:21:29;53654.78;;;-139.68;94.85
10940;BME280;5522;42.696;23.494;2023-02-12T03:24:01;53662.84;;;-139.68;94.84
10940;BME280;5522;42.696;23.494;2023-02-12T03:26:37;53630.66;;;-139.68;94.58
10940;BME280;5522;42.696;23.494;2023-02-12T03:29:06;53638.72;;;-139.68;94.83
10940;BME280;5522;42.696;23.494;2023-02-12T03:31:38;53590.47;;;-139.68;95.51
10940;BME280;5522;42.696;23.494;2023-02-12T03:34:14;53638.72;;;-139.68;94.73
10940;BME280;5522;42.696;23.494;2023-02-12T03:36:48;53682.94;;;-139.68;94.44
10940;BME280;5522;42.696;23.494;2023-02-12T03:39:26;53634.69;;;-139.68;94.47
10940;BME280;5522;42.696;23.494;2023-02-12T03:42:00;53618.63;;;-139.68;94.49
10940;BME280;5522;42.696;23.494;2023-02-12T03:44:41;53618.63;;;-139.68;94.26
10940;BME280;5522;42.696;23.494;2023-02-12T03:47:18;53634.69;;;-139.68;94.90
10940;BME280;5522;42.696;23.494;2023-02-12T03:49:52;53686.97;;;-139.68;95.21
10940;BME280;5522;42.696;23.494;2023-02-12T03:52:20;53634.69;;;-139.68;95.56
10940;BME280;5522;42.696;23.494;2023-02-12T03:54:47;53654.78;;;-139.68;95.35
10940;BME280;5522;42.696;23.494;2023-02-12T03:57:16;53658.81;;;-139.68;95.85
10940;BME280;5522;42.696;23.494;2023-02-12T03:59:45;53604.53;;;-139.68;95.67
10940;BME280;5522;42.696;23.494;2023-02-12T04:02:13;53654.78;;;-139.68;96.05
10940;BME280;5522;42.696;23.494;2023-02-12T04:04:40;53654.78;;;-139.68;95.83
10940;BME280;5522;42.696;23.494;2023-02-12T04:07:09;53682.94;;;-139.68;95.03
10940;BME280;5522;42.696;23.494;2023-02-12T04:09:37;53628.66;;;-139.68;94.64
10940;BME280;5522;42.696;23.494;2023-02-12T04:12:15;53662.84;;;-139.68;93.85
10940;BME280;5522;42.696;23.494;2023-02-12T04:14:49;53672.88;;;-139.68;94.67
10940;BME280;5522;42.696;23.494;2023-02-12T04:17:21;53628.66;;;-139.68;95.09
10940;BME280;5522;42.696;23.494;2023-02-12T04:20:03;53670.88;;;-139.68;95.19
10940;BME280;5522;42.696;23.494;2023-02-12T04:22:44;53668.88;;;-139.68;95.33
10940;BME280;5522;42.696;23.494;2023-02-12T04:25:20;53644.75;;;-139.68;95.52
10940;BME280;5522;42.696;23.494;2023-02-12T04:27:55;53628.66;;;-139.68;95.38
10940;BME280;5522;42.696;23.494;2023-02-12T04:30:26;53650.78;;;-139.68;95.51
10940;BME280;5522;42.696;23.494;2023-02-12T04:32:58;53656.81;;;-139.68;95.57
10940;BME280;5522;42.696;23.494;2023-02-12T04:35:30;53646.75;;;-139.68;96.46
10940;BME280;5522;42.696;23.494;2023-02-12T04:38:05;53658.81;;;-139.68;96.65
10940;BME280;5522;42.696;23.494;2023-02-12T04:40:35;53682.94;;;-139.68;96.01
10940;BME280;5522;42.696;23.494;2023-02-12T04:43:03;53640.72;;;-139.68;95.89
10940;BME280;5522;42.696;23.494;2023-02-12T04:45:33;53612.56;;;-139.68;95.56
10940;BME280;5522;42.696;23.494;2023-02-12T04:48:00;53648.75;;;-139.68;96.44
10940;BME280;5522;42.696;23.494;2023-02-12T04:50:36;53642.72;;;-139.68;96.11
10940;BME280;5522;42.696;23.494;2023-02-12T04:53:06;53662.84;;;-139.68;96.34
10940;BME280;5522;42.696;23.494;2023-02-12T04:55:33;53678.91;;;-139.68;96.44
10940;BME280;5522;42.696;23.494;2023-02-12T04:58:00;53670.88;;;-139.68;96.90
10940;BME280;5522;42.696;23.494;2023-02-12T05:00:27;53660.81;;;-139.68;97.33
10940;BME280;5522;42.696;23.494;2023-02-12T05:02:54;53644.75;;;-139.68;97.16
10940;BME280;5522;42.696;23.494;2023-02-12T05:05:21;53634.69;;;-139.68;97.09
10940;BME280;5522;42.696;23.494;2023-02-12T05:07:48;53670.88;;;-139.68;97.42
10940;BME280;5522;42.696;23.494;2023-02-12T05:10:16;53670.88;;;-139.68;96.94
10940;BME280;5522;42.696;23.494;2023-02-12T05:12:43;53630.66;;;-139.68;97.13
10940;BME280;5522;42.696;23.494;2023-02-12T05:15:10;53688.97;;;-139.68;96.56
10940;BME280;5522;42.696;23.494;2023-02-12T05:17:37;53682.94;;;-139.68;96.23
10940;BME280;5522;42.696;23.494;2023-02-12T05:20:05;53638.72;;;-139.68;96.26
10940;BME280;5522;42.696;23.494;2023-02-12T05:22:32;53632.69;;;-139.68;96.40
10940;BME280;5522;42.696;23.494;2023-02-12T05:24:59;53630.66;;;-139.68;96.55
10940;BME280;5522;42.696;23.494;2023-02-12T05:27:27;53630.66;;;-139.68;96.63
10940;BME280;5522;42.696;23.494;2023-02-12T05:29:54;53699.03;;;-139.68;96.50
10940;BME280;5522;42.696;23.494;2023-02-12T05:32:21;53658.81;;;-139.68;96.68
10940;BME280;5522;42.696;23.494;2023-02-12T05:34:48;53638.72;;;-139.68;96.39
10940;BME280;5522;42.696;23.494;2023-02-12T05:37:15;53618.63;;;-139.68;96.12
10940;BME280;5522;42.696;23.494;2023-02-12T05:39:41;53670.88;;;-139.68;96.18
10940;BME280;5522;42.696;23.494;2023-02-12T05:42:08;53666.84;;;-139.68;95.84
10940;BME280;5522;42.696;23.494;2023-02-12T05:44:36;53678.91;;;-139.68;95.94
10940;BME280;5522;42.696;23.494;2023-02-12T05:47:03;53648.75;;;-139.68;95.74
10940;BME280;5522;42.696;23.494;2023-02-12T05:49:30;53662.84;;;-139.68;95.47
10940;BME280;5522;42.696;23.494;2023-02-12T05:51:57;53652.78;;;-139.68;95.52
10940;BME280;5522;42.696;23.494;2023-02-12T05:54:24;53654.78;;;-139.68;95.25
10940;BME280;5522;42.696;23.494;2023-02-12T05:56:51;53638.72;;;-139.68;95.06
10940;BME280;5522;42.696;23.494;2023-02-12T05:59:19;53646.75;;;-139.68;95.20
10940;BME280;5522;42.696;23.494;2023-02-12T06:01:49;53642.72;;;-139.68;95.09
10940;BME280;5522;42.696;23.494;2023-02-12T06:04:18;53684.94;;;-139.68;95.44
10940;BME280;5522;42.696;23.494;2023-02-12T06:06:45;53650.78;;;-139.68;95.51
10940;BME280;5522;42.696;23.494;2023-02-12T06:09:13;53678.91;;;-139.68;95.57
10940;BME280;5522;42.696;23.494;2023-02-12T06:11:40;53670.88;;;-139.68;95.96
10940;BME280;5522;42.696;23.494;2023-02-12T06:14:10;53668.88;;;-139.68;95.97
10940;BME280;5522;42.696;23.494;2023-02-12T06:16:38;53618.63;;;-139.68;95.63
10940;BME280;5522;42.696;23.494;2023-02-12T06:19:06;53680.94;;;-139.68;96.29
10940;BME280;5522;42.696;23.494;2023-02-12T06:21:33;53678.91;;;-139.68;96.97
10940;BME280;5522;42.696;23.494;2023-02-12T06:24:00;53680.94;;;-139.68;98.13
10940;BME280;5522;42.696;23.494;2023-02-12T06:26:27;53646.75;;;-139.68;99.02
10940;BME280;5522;42.696;23.494;2023-02-12T06:28:53;53670.88;;;-139.68;100.00
10940;BME280;5522;42.696;23.494;2023-02-12T06:31:23;53626.66;;;-139.68;100.00
10940;BME280;5522;42.696;23.494;2023-02-12T06:33:51;53686.97;;;-139.68;100.00
10940;BME280;5522;42.696;23.494;2023-02-12T06:36:20;53652.78;;;-139.68;100.00
10940;BME280;5522;42.696;23.494;2023-02-12T06:38:47;53690.97;;;-139.68;100.00
10940;BME280;5522;42.696;23.494;2023-02-12T06:41:14;53664.84;;;-139.68;100.00
10940;BME280;5522;42.696;23.494;2023-02-12T06:43:42;53670.88;;;-139.68;100.00
10940;BME280;5522;42.696;23.494;2023-02-12T06:46:09;53624.63;;;-139.68;100.00
10940;BME280;5522;42.696;23.494;2023-02-12T06:48:36;53664.84;;;-139.68;100.00
10940;BME280;5522;42.696;23.494;2023-02-12T06:51:05;53642.72;;;-139.68;100.00
10940;BME280;5522;42.696;23.494;2023-02-12T06:53:33;53666.84;;;-139.68;100.00
10940;BME280;5522;42.696;23.494;2023-02-12T06:56:01;53711.09;;;-139.68;100.00
10940;BME280;5522;42.696;23.494;2023-02-12T06:58:27;53638.72;;;-139.68;100.00
10940;BME280;5522;42.696;23.494;2023-02-12T07:00:54;53622.63;;;-139.68;100.00
10940;BME280;5522;42.696;23.494;2023-02-12T07:03:21;53662.84;;;-139.68;100.00
10940;BME280;5522;42.696;23.494;2023-02-12T07:05:48;53664.84;;;-139.68;100.00
10940;BME280;5522;42.696;23.494;2023-02-12T07:08:15;53682.94;;;-139.68;100.00
10940;BME280;5522;42.696;23.494;2023-02-12T07:10:47;53654.78;;;-139.68;100.00
10940;BME280;5522;42.696;23.494;2023-02-12T07:13:14;53662.84;;;-139.68;100.00
10940;BME280;5522;42.696;23.494;2023-02-12T07:15:41;53670.88;;;-139.68;100.00
10940;BME280;5522;42.696;23.494;2023-02-12T07:18:08;53684.94;;;-139.68;100.00
10940;BME280;5522;42.696;23.494;2023-02-12T07:20:35;53650.78;;;-139.68;100.00
10940;BME280;5522;42.696;23.494;2023-02-12T07:23:02;53622.63;;;-139.68;100.00
10940;BME280;5522;42.696;23.494;2023-02-12T07:25:29;53656.81;;;-139.68;100.00
10940;BME280;5522;42.696;23.494;2023-02-12T07:27:57;53668.88;;;-139.68;100.00
10940;BME280;5522;42.696;23.494;2023-02-12T07:30:24;53693.00;;;-139.68;100.00
10940;BME280;5522;42.696;23.494;2023-02-12T07:32:50;53678.91;;;-139.68;100.00
10940;BME280;5522;42.696;23.494;2023-02-12T07:35:17;53644.75;;;-139.68;100.00
10940;BME280;5522;42.696;23.494;2023-02-12T07:37:44;53668.88;;;-139.68;100.00
10940;BME280;5522;42.696;23.494;2023-02-12T07:40:11;53672.88;;;-139.68;100.00
10940;BME280;5522;42.696;23.494;2023-02-12T07:42:38;53648.75;;;-139.68;100.00
10940;BME280;5522;42.696;23.494;2023-02-12T07:45:07;53684.94;;;-139.68;100.00
10940;BME280;5522;42.696;23.494;2023-02-12T07:47:34;53695.00;;;-139.68;100.00
10940;BME280;5522;42.696;23.494;2023-02-12T07:50:04;53678.91;;;-139.68;100.00
10940;BME280;5522;42.696;23.494;2023-02-12T07:52:31;53660.81;;;-139.68;100.00
10940;BME280;5522;42.696;23.494;2023-02-12T07:54:58;53646.75;;;-139.68;100.00
10940;BME280;5522;42.696;23.494;2023-02-12T07:57:25;53648.75;;;-139.68;100.00
10940;BME280;5522;42.696;23.494;2023-02-12T07:59:52;53642.72;;;-139.68;100.00
10940;BME280;5522;42.696;23.494;2023-02-12T08:02:20;53670.88;;;-139.68;100.00
10940;BME280;5522;42.696;23.494;2023-02-12T08:04:53;53650.78;;;-139.68;100.00
10940;BME280;5522;42.696;23.494;2023-02-12T08:07:20;53668.88;;;-139.68;100.00
10940;BME280;5522;42.696;23.494;2023-02-12T08:09:47;53676.91;;;-139.68;100.00
10940;BME280;5522;42.696;23.494;2023-02-12T08:12:14;53650.78;;;-139.68;100.00
10940;BME280;5522;42.696;23.494;2023-02-12T08:14:41;53680.94;;;-139.68;100.00
10940;BME280;5522;42.696;23.494;2023-02-12T08:17:08;53668.88;;;-139.68;100.00
10940;BME280;5522;42.696;23.494;2023-02-12T08:19:36;53666.84;;;-139.68;100.00
10940;BME280;5522;42.696;23.494;2023-02-12T08:22:03;53656.81;;;-139.68;100.00
10940;BME280;5522;42.696;23.494;2023-02-12T08:24:31;53678.91;;;-139.68;100.00
10940;BME280;5522;42.696;23.494;2023-02-12T08:26:58;53650.78;;;-139.68;100.00
10940;BME280;5522;42.696;23.494;2023-02-12T08:29:27;53630.66;;;-139.68;100.00
10940;BME280;5522;42.696;23.494;2023-02-12T08:31:55;53695.00;;;-139.68;100.00
10940;BME280;5522;42.696;23.494;2023-02-12T08:34:24;53654.78;;;-139.68;100.00
10940;BME280;5522;42.696;23.494;2023-02-12T08:36:53;53650.78;;;-139.68;100.00
10940;BME280;5522;42.696;23.494;2023-02-12T08:39:21;53697.00;;;-139.68;100.00
10940;BME280;5522;42.696;23.494;2023-02-12T08:41:49;53652.78;;;-139.68;100.00
10940;BME280;5522;42.696;23.494;2023-02-12T08:44:16;53707.06;;;-139.68;100.00
10940;BME280;5522;42.696;23.494;2023-02-12T08:46:44;53648.75;;;-139.68;100.00
10940;BME280;5522;42.696;23.494;2023-02-12T08:49:15;53660.81;;;-139.68;100.00
10940;BME280;5522;42.696;23.494;2023-02-12T08:51:44;53693.00;;;-139.68;100.00
10940;BME280;5522;42.696;23.494;2023-02-12T08:54:16;53664.84;;;-139.68;100.00
10940;BME280;5522;42.696;23.494;2023-02-12T08:56:43;53695.00;;;-139.68;100.00
10940;BME280;5522;42.696;23.494;2023-02-12T08:59:11;53676.91;;;-139.68;98.40
10940;BME280;5522;42.696;23.494;2023-02-12T09:01:39;53682.94;;;-139.68;92.70
10940;BME280;5522;42.696;23.494;2023-02-12T09:04:08;53684.94;;;-139.68;90.25
10940;BME280;5522;42.696;23.494;2023-02-12T09:06:42;53707.06;;;-139.68;87.34
10940;BME280;5522;42.696;23.494;2023-02-12T09:09:09;53707.06;;;-139.68;81.76
10940;BME280;5522;42.696;23.494;2023-02-12T09:11:38;53686.97;;;-139.68;81.10
10940;BME280;5522;42.696;23.494;2023-02-12T09:14:07;53711.09;;;-139.68;76.92
10940;BME280;5522;42.696;23.494;2023-02-12T09:16:35;53666.84;;;-139.68;75.42
10940;BME280;5522;42.696;23.494;2023-02-12T09:19:04;53713.09;;;-139.68;74.96
10940;BME280;5522;42.696;23.494;2023-02-12T09:21:31;53705.06;;;-139.68;77.28
10940;BME280;5522;42.696;23.494;2023-02-12T09:23:59;53709.06;;;-139.68;81.05
10940;BME280;5522;42.696;23.494;2023-02-12T09:26:26;53662.84;;;-139.68;82.03
10940;BME280;5522;42.696;23.494;2023-02-12T09:28:55;53662.84;;;-139.68;79.26
10940;BME280;5522;42.696;23.494;2023-02-12T09:31:23;53690.97;;;-139.68;82.01
10940;BME280;5522;42.696;23.494;2023-02-12T09:33:52;53723.13;;;-139.68;77.69
10940;BME280;5522;42.696;23.494;2023-02-12T09:36:20;53735.19;;;-139.68;77.40
10940;BME280;5522;42.696;23.494;2023-02-12T09:38:47;53695.00;;;-139.68;72.81
10940;BME280;5522;42.696;23.494;2023-02-12T09:41:27;53713.09;;;-139.68;69.79
10940;BME280;5522;42.696;23.494;2023-02-12T09:44:04;53705.06;;;-139.68;68.18
10940;BME280;5522;42.696;23.494;2023-02-12T09:46:35;53725.16;;;-139.68;62.85
10940;BME280;5522;42.696;23.494;2023-02-12T09:49:08;53703.03;;;-139.68;60.41
10940;BME280;5522;42.696;23.494;2023-02-12T09:51:37;53711.09;;;-139.68;68.69
10940;BME280;5522;42.696;23.494;2023-02-12T09:54:06;53678.91;;;-139.68;72.21
10940;BME280;5522;42.696;23.494;2023-02-12T09:56:39;53731.19;;;-139.68;75.22
10940;BME280;5522;42.696;23.494;2023-02-12T09:59:15;53695.00;;;-139.68;72.38
10940;BME280;5522;42.696;23.494;2023-02-12T10:01:45;53725.16;;;-139.68;68.13
10940;BME280;5522;42.696;23.494;2023-02-12T10:04:11;53721.13;;;-139.68;63.40
10940;BME280;5522;42.696;23.494;2023-02-12T10:06:43;53723.13;;;-139.68;56.26
10940;BME280;5522;42.696;23.494;2023-02-12T10:09:25;53695.00;;;-139.68;59.42
10940;BME280;5522;42.696;23.494;2023-02-12T10:12:01;53668.88;;;-139.68;56.50
10940;BME280;5522;42.696;23.494;2023-02-12T10:14:55;53767.38;;;-139.68;52.37
10940;BME280;5522;42.696;23.494;2023-02-12T10:17:34;53731.19;;;-139.68;48.95
10940;BME280;5522;42.696;23.494;2023-02-12T10:20:30;53759.31;;;-139.68;48.46
10940;BME280;5522;42.696;23.494;2023-02-12T10:23:11;53747.25;;;-139.68;48.67
10940;BME280;5522;42.696;23.494;2023-02-12T10:25:47;53727.16;;;-139.68;47.90
10940;BME280;5522;42.696;23.494;2023-02-12T10:28:17;53723.13;;;-139.68;50.36
10940;BME280;5522;42.696;23.494;2023-02-12T10:30:51;53743.25;;;-139.68;53.20
10940;BME280;5522;42.696;23.494;2023-02-12T10:33:25;53735.19;;;-139.68;52.49
10940;BME280;5522;42.696;23.494;2023-02-12T10:35:55;53755.31;;;-139.68;54.10
10940;BME280;5522;42.696;23.494;2023-02-12T10:38:28;53715.09;;;-139.68;52.85
10940;BME280;5522;42.696;23.494;2023-02-12T10:40:57;53670.88;;;-139.68;54.41
10940;BME280;5522;42.696;23.494;2023-02-12T10:43:27;53690.97;;;-139.68;55.32
10940;BME280;5522;42.696;23.494;2023-02-12T10:45:57;53693.00;;;-139.68;60.88
10940;BME280;5522;42.696;23.494;2023-02-12T10:48:29;53703.03;;;-139.68;63.87
10940;BME280;5522;42.696;23.494;2023-02-12T10:51:08;53695.00;;;-139.68;64.59
10940;BME280;5522;42.696;23.494;2023-02-12T10:53:40;53743.25;;;-139.68;65.98
10940;BME280;5522;42.696;23.494;2023-02-12T10:56:17;53737.22;;;-139.68;68.00
10940;BME280;5522;42.696;23.494;2023-02-12T10:58:53;53686.97;;;-139.68;67.78
10940;BME280;5522;42.696;23.494;2023-02-12T11:01:24;53699.03;;;-139.68;68.30
10940;BME280;5522;42.696;23.494;2023-02-12T11:03:52;53755.31;;;-139.68;68.67
10940;BME280;5522;42.696;23.494;2023-02-12T11:06:21;53743.25;;;-139.68;70.20
10940;BME280;5522;42.696;23.494;2023-02-12T11:08:48;53747.25;;;-139.68;72.90
10940;BME280;5522;42.696;23.494;2023-02-12T11:11:18;53735.19;;;-139.68;72.33
10940;BME280;5522;42.696;23.494;2023-02-12T11:13:47;53787.47;;;-139.68;73.15
10940;BME280;5522;42.696;23.494;2023-02-12T11:16:28;53717.13;;;-139.68;75.15
10940;BME280;5522;42.696;23.494;2023-02-12T11:19:00;53695.00;;;-139.68;75.48
10940;BME280;5522;42.696;23.494;2023-02-12T11:21:29;53701.03;;;-139.68;78.33
10940;BME280;5522;42.696;23.494;2023-02-12T11:23:56;53741.22;;;-139.68;81.45
10940;BME280;5522;42.696;23.494;2023-02-12T11:26:26;53682.94;;;-139.68;81.14
10940;BME280;5522;42.696;23.494;2023-02-12T11:28:55;53678.91;;;-139.68;82.23
10940;BME280;5522;42.696;23.494;2023-02-12T11:31:23;53713.09;;;-139.68;80.11
10940;BME280;5522;42.696;23.494;2023-02-12T11:34:08;53666.84;;;-139.68;81.62
10940;BME280;5522;42.696;23.494;2023-02-12T11:36:39;53723.13;;;-139.68;79.70
10940;BME280;5522;42.696;23.494;2023-02-12T11:39:16;53741.22;;;-139.68;75.95
10940;BME280;5522;42.696;23.494;2023-02-12T11:41:50;53682.94;;;-139.68;71.44
10940;BME280;5522;42.696;23.494;2023-02-12T11:44:20;53751.28;;;-139.68;68.29
10940;BME280;5522;42.696;23.494;2023-02-12T11:46:49;53719.13;;;-139.68;68.45
10940;BME280;5522;42.696;23.494;2023-02-12T11:49:21;53711.09;;;-139.68;67.77
10940;BME280;5522;42.696;23.494;2023-02-12T11:51:49;53743.25;;;-139.68;67.49
10940;BME280;5522;42.696;23.494;2023-02-12T11:54:19;53703.03;;;-139.68;73.77
10940;BME280;5522;42.696;23.494;2023-02-12T11:56:47;53739.22;;;-139.68;72.27
10940;BME280;5522;42.696;23.494;2023-02-12T11:59:27;53759.31;;;-139.68;76.11
10940;BME280;5522;42.696;23.494;2023-02-12T12:01:58;53713.09;;;-139.68;75.20
10940;BME280;5522;42.696;23.494;2023-02-12T12:04:29;53767.38;;;-139.68;77.50
10940;BME280;5522;42.696;23.494;2023-02-12T12:07:04;53695.00;;;-139.68;75.54
10940;BME280;5522;42.696;23.494;2023-02-12T12:09:38;53747.25;;;-139.68;76.06
10940;BME280;5522;42.696;23.494;2023-02-12T12:12:10;53723.13;;;-139.68;76.46
10940;BME280;5522;42.696;23.494;2023-02-12T12:14:44;53755.31;;;-139.68;78.13
10940;BME280;5522;42.696;23.494;2023-02-12T12:17:37;53731.19;;;-139.68;76.99
10940;BME280;5522;42.696;23.494;2023-02-12T12:20:29;53727.16;;;-139.68;77.32
10940;BME280;5522;42.696;23.494;2023-02-12T12:23:00;53747.25;;;-139.68;78.02
10940;BME280;5522;42.696;23.494;2023-02-12T12:25:31;53703.03;;;-139.68;74.53
10940;BME280;5522;42.696;23.494;2023-02-12T12:30:53;53713.09;;;-139.68;78.05
10940;BME280;5522;42.696;23.494;2023-02-12T12:33:31;53717.13;;;-139.68;77.58
10940;BME280;5522;42.696;23.494;2023-02-12T12:38:57;53701.03;;;-139.68;75.68
10940;BME280;5522;42.696;23.494;2023-02-12T12:41:37;53731.19;;;-139.68;75.77
10940;BME280;5522;42.696;23.494;2023-02-12T12:44:21;53755.31;;;-139.68;76.38
10940;BME280;5522;42.696;23.494;2023-02-12T12:47:04;53789.47;;;-139.68;78.10
10940;BME280;5522;42.696;23.494;2023-02-12T12:49:53;53755.31;;;-139.68;78.17
10940;BME280;5522;42.696;23.494;2023-02-12T12:52:43;53723.13;;;-139.68;79.59
10940;BME280;5522;42.696;23.494;2023-02-12T12:55:39;53737.22;;;-139.68;79.19
10940;BME280;5522;42.696;23.494;2023-02-12T12:58:15;53743.25;;;-139.68;78.61
10940;BME280;5522;42.696;23.494;2023-02-12T13:00:58;53697.00;;;-139.68;79.56
10940;BME280;5522;42.696;23.494;2023-02-12T13:03:51;53678.91;;;-139.68;80.30
10940;BME280;5522;42.696;23.494;2023-02-12T13:06:40;53705.06;;;-139.68;81.52